WXM80 ListenWXM80 Stop

You find our weather info also at:

UK Metoffice

WeatherCloud

Weather Underground

Northeastern Weather Network

AWEKAS

Citizen Weather Observer Program (CWOP)

HAMweather, WeatherForYou, PWS Weather


Weather Underground History page Text

Daily Summary for March 3, 2017 Units:  Both    English   Metric
« Previous Day
Next Day »
Daily Weekly Monthly Yearly Custom
  High: Low: Average:
Temperature: 39.6 °F /  4.2 °C 25.2 °F /  -3.8 °C 33.4 °F /  0.8 °C
Dew Point: 20.2 °F /  -6.6 °C 6.1 °F /  -14.4 °C 15.4 °F /  -9.2 °C
Humidity: 60 % 32 % 48 %
Wind Speed: 16.4 mph /  26.4 km/h - 6.6 mph /  10.6 km/h
Wind Gust: 32.2 mph /  51.8 km/h - -
Wind:- - WNW
Pressure: 30.39 in /  1029 hPa 30.05 in /  1017.5 hPa -
Precipitation: 0.00 in /  0 mm    
Historical Graphs
 
 
Tabular Data for March 3, 2017
Time Temperature Dew Point Pressure Wind Wind Speed Wind Gust Humidity Rainfall Rate (Hourly)
00:03 35.5 °F /  1.9 °C 17.2 °F /  -8.2 °C 30.05 in /  1017.5 hPa WNW 6.4 mph /  10.3 km/h 16.1 mph /  25.9 km/h 47 % 0.00 in /  0 mm
00:08 35.4 °F /  1.9 °C 17.2 °F /  -8.2 °C 30.06 in /  1017.8 hPa WNW 6.0 mph /  9.7 km/h 13.0 mph /  20.9 km/h 47 % 0.00 in /  0 mm
00:13 35.3 °F /  1.8 °C 16.6 °F /  -8.6 °C 30.05 in /  1017.5 hPa WNW 6.9 mph /  11.1 km/h 13.8 mph /  22.2 km/h 46 % 0.00 in /  0 mm
00:18 35.2 °F /  1.8 °C 16.5 °F /  -8.6 °C 30.05 in /  1017.5 hPa NW 8.3 mph /  13.4 km/h 11.5 mph /  18.5 km/h 46 % 0.00 in /  0 mm
00:23 35.2 °F /  1.8 °C 16.9 °F /  -8.4 °C 30.05 in /  1017.5 hPa WNW 7.0 mph /  11.3 km/h 18.0 mph /  29 km/h 47 % 0.00 in /  0 mm
00:28 35.1 °F /  1.7 °C 16.4 °F /  -8.7 °C 30.06 in /  1017.8 hPa WNW 8.0 mph /  12.9 km/h 18.0 mph /  29 km/h 46 % 0.00 in /  0 mm
00:33 35.0 °F /  1.7 °C 17.3 °F /  -8.2 °C 30.06 in /  1017.8 hPa WNW 5.0 mph /  8 km/h 12.0 mph /  19.3 km/h 48 % 0.00 in /  0 mm
00:38 34.9 °F /  1.6 °C 16.2 °F /  -8.8 °C 30.06 in /  1017.8 hPa WNW 8.0 mph /  12.9 km/h 16.0 mph /  25.7 km/h 46 % 0.00 in /  0 mm
00:43 34.8 °F /  1.6 °C 17.1 °F /  -8.3 °C 30.06 in /  1017.8 hPa WNW 8.0 mph /  12.9 km/h 15.0 mph /  24.1 km/h 48 % 0.00 in /  0 mm
00:48 34.7 °F /  1.5 °C 18.4 °F /  -7.6 °C 30.06 in /  1017.8 hPa WNW 7.0 mph /  11.3 km/h 12.0 mph /  19.3 km/h 51 % 0.00 in /  0 mm
00:53 34.6 °F /  1.4 °C 17.8 °F /  -7.9 °C 30.06 in /  1017.8 hPa WSW 5.5 mph /  8.9 km/h 15.0 mph /  24.1 km/h 50 % 0.00 in /  0 mm
00:58 34.5 °F /  1.4 °C 17.8 °F /  -7.9 °C 30.06 in /  1017.8 hPa NNW 5.5 mph /  8.9 km/h 17.3 mph /  27.8 km/h 50 % 0.00 in /  0 mm
01:03 34.4 °F /  1.3 °C 17.7 °F /  -7.9 °C 30.06 in /  1017.8 hPa WNW 5.5 mph /  8.9 km/h 13.8 mph /  22.2 km/h 50 % 0.00 in /  0 mm
01:08 34.3 °F /  1.3 °C 17.1 °F /  -8.3 °C 30.07 in /  1018.2 hPa North 4.8 mph /  7.7 km/h 12.7 mph /  20.4 km/h 49 % 0.00 in /  0 mm
01:13 34.2 °F /  1.2 °C 17.0 °F /  -8.3 °C 30.07 in /  1018.2 hPa WNW 9.9 mph /  15.9 km/h 16.1 mph /  25.9 km/h 49 % 0.00 in /  0 mm
01:18 34.1 °F /  1.2 °C 16.9 °F /  -8.4 °C 30.07 in /  1018.2 hPa NNW 5.2 mph /  8.4 km/h 15.0 mph /  24.1 km/h 49 % 0.00 in /  0 mm
01:23 34.0 °F /  1.1 °C 16.8 °F /  -8.4 °C 30.07 in /  1018.2 hPa North 7.5 mph /  12.1 km/h 13.8 mph /  22.2 km/h 49 % 0.00 in /  0 mm
01:28 33.9 °F /  1.1 °C 16.7 °F /  -8.5 °C 30.08 in /  1018.5 hPa WSW 7.4 mph /  11.9 km/h 15.0 mph /  24.1 km/h 49 % 0.00 in /  0 mm
01:33 33.9 °F /  1.1 °C 16.3 °F /  -8.7 °C 30.08 in /  1018.5 hPa WNW 4.8 mph /  7.7 km/h 9.2 mph /  14.8 km/h 48 % 0.00 in /  0 mm
01:38 33.8 °F /  1 °C 16.6 °F /  -8.6 °C 30.08 in /  1018.5 hPa WNW 4.2 mph /  6.8 km/h 11.5 mph /  18.5 km/h 49 % 0.00 in /  0 mm
01:43 33.7 °F /  0.9 °C 16.1 °F /  -8.8 °C 30.08 in /  1018.5 hPa NW 5.8 mph /  9.3 km/h 15.0 mph /  24.1 km/h 48 % 0.00 in /  0 mm
01:48 33.5 °F /  0.8 °C 16.4 °F /  -8.7 °C 30.08 in /  1018.5 hPa WSW 6.4 mph /  10.3 km/h 13.0 mph /  20.9 km/h 49 % 0.00 in /  0 mm
01:53 33.4 °F /  0.8 °C 15.8 °F /  -9 °C 30.08 in /  1018.5 hPa WNW 4.4 mph /  7.1 km/h 9.2 mph /  14.8 km/h 48 % 0.00 in /  0 mm
01:58 33.3 °F /  0.7 °C 15.2 °F /  -9.3 °C 30.08 in /  1018.5 hPa West 4.4 mph /  7.1 km/h 11.5 mph /  18.5 km/h 47 % 0.00 in /  0 mm
02:03 33.2 °F /  0.7 °C 15.6 °F /  -9.1 °C 30.08 in /  1018.5 hPa NW 5.5 mph /  8.9 km/h 13.8 mph /  22.2 km/h 48 % 0.00 in /  0 mm
02:08 33.1 °F /  0.6 °C 15.5 °F /  -9.2 °C 30.08 in /  1018.5 hPa West 5.4 mph /  8.7 km/h 15.0 mph /  24.1 km/h 48 % 0.00 in /  0 mm
02:13 33.0 °F /  0.6 °C 15.4 °F /  -9.2 °C 30.08 in /  1018.5 hPa West 6.7 mph /  10.8 km/h 15.0 mph /  24.1 km/h 48 % 0.00 in /  0 mm
02:18 32.9 °F /  0.5 °C 15.8 °F /  -9 °C 30.08 in /  1018.5 hPa West 6.7 mph /  10.8 km/h 12.0 mph /  19.3 km/h 49 % 0.00 in /  0 mm
02:24 32.8 °F /  0.4 °C 15.7 °F /  -9.1 °C 30.08 in /  1018.5 hPa WNW 5.0 mph /  8 km/h 8.1 mph /  13 km/h 49 % 0.00 in /  0 mm
02:29 32.7 °F /  0.4 °C 16.1 °F /  -8.8 °C 30.08 in /  1018.5 hPa West 3.4 mph /  5.5 km/h 10.4 mph /  16.7 km/h 50 % 0.00 in /  0 mm
02:34 32.6 °F /  0.3 °C 16.4 °F /  -8.7 °C 30.08 in /  1018.5 hPa NW 4.0 mph /  6.4 km/h 9.2 mph /  14.8 km/h 51 % 0.00 in /  0 mm
02:39 32.6 °F /  0.3 °C 16.0 °F /  -8.9 °C 30.08 in /  1018.5 hPa West 6.4 mph /  10.3 km/h 11.0 mph /  17.7 km/h 50 % 0.00 in /  0 mm
02:44 32.5 °F /  0.3 °C 15.9 °F /  -8.9 °C 30.08 in /  1018.5 hPa West 5.7 mph /  9.2 km/h 12.7 mph /  20.4 km/h 50 % 0.00 in /  0 mm
02:49 32.5 °F /  0.3 °C 16.4 °F /  -8.7 °C 30.08 in /  1018.5 hPa West 1.3 mph /  2.1 km/h 3.5 mph /  5.6 km/h 51 % 0.00 in /  0 mm
02:54 32.4 °F /  0.2 °C 16.3 °F /  -8.7 °C 30.08 in /  1018.5 hPa NW 6.7 mph /  10.8 km/h 11.5 mph /  18.5 km/h 51 % 0.00 in /  0 mm
02:59 32.3 °F /  0.2 °C 16.2 °F /  -8.8 °C 30.08 in /  1018.5 hPa WSW 6.2 mph /  10 km/h 9.2 mph /  14.8 km/h 51 % 0.00 in /  0 mm
03:04 32.3 °F /  0.2 °C 16.2 °F /  -8.8 °C 30.08 in /  1018.5 hPa WNW 2.3 mph /  3.7 km/h 6.9 mph /  11.1 km/h 51 % 0.00 in /  0 mm
03:09 32.2 °F /  0.1 °C 17.0 °F /  -8.3 °C 30.08 in /  1018.5 hPa SW 2.2 mph /  3.5 km/h 6.0 mph /  9.7 km/h 53 % 0.00 in /  0 mm
03:14 32.1 °F /  0.1 °C 16.4 °F /  -8.7 °C 30.08 in /  1018.5 hPa NW 4.8 mph /  7.7 km/h 12.0 mph /  19.3 km/h 52 % 0.00 in /  0 mm
03:19 32.0 °F /  0 °C 16.8 °F /  -8.4 °C 30.08 in /  1018.5 hPa NW 6.5 mph /  10.5 km/h 10.0 mph /  16.1 km/h 53 % 0.00 in /  0 mm
03:24 32.0 °F /  0 °C 16.3 °F /  -8.7 °C 30.08 in /  1018.5 hPa WNW 5.7 mph /  9.2 km/h 9.2 mph /  14.8 km/h 52 % 0.00 in /  0 mm
03:30 31.9 °F /  -0.1 °C 16.7 °F /  -8.5 °C 30.09 in /  1018.8 hPa WNW 6.2 mph /  10 km/h 10.4 mph /  16.7 km/h 53 % 0.00 in /  0 mm
03:35 31.9 °F /  -0.1 °C 16.2 °F /  -8.8 °C 30.09 in /  1018.8 hPa WSW 8.1 mph /  13 km/h 11.5 mph /  18.5 km/h 52 % 0.00 in /  0 mm
03:40 31.8 °F /  -0.1 °C 16.6 °F /  -8.6 °C 30.09 in /  1018.8 hPa NW 5.9 mph /  9.5 km/h 11.5 mph /  18.5 km/h 53 % 0.00 in /  0 mm
03:45 31.7 °F /  -0.2 °C 16.1 °F /  -8.8 °C 30.09 in /  1018.8 hPa NW 6.1 mph /  9.8 km/h 16.1 mph /  25.9 km/h 52 % 0.00 in /  0 mm
03:50 31.6 °F /  -0.2 °C 16.4 °F /  -8.7 °C 30.09 in /  1018.8 hPa NW 9.6 mph /  15.4 km/h 11.5 mph /  18.5 km/h 53 % 0.00 in /  0 mm
03:55 31.6 °F /  -0.2 °C 16.8 °F /  -8.4 °C 30.10 in /  1019.2 hPa WSW 7.2 mph /  11.6 km/h 12.7 mph /  20.4 km/h 54 % 0.00 in /  0 mm
04:00 31.6 °F /  -0.2 °C 16.8 °F /  -8.4 °C 30.09 in /  1018.8 hPa WSW 3.2 mph /  5.1 km/h 8.1 mph /  13 km/h 54 % 0.00 in /  0 mm
04:05 31.5 °F /  -0.3 °C 16.3 °F /  -8.7 °C 30.10 in /  1019.2 hPa WNW 7.9 mph /  12.7 km/h 16.1 mph /  25.9 km/h 53 % 0.00 in /  0 mm
04:10 31.3 °F /  -0.4 °C 15.7 °F /  -9.1 °C 30.10 in /  1019.2 hPa NW 6.8 mph /  10.9 km/h 11.5 mph /  18.5 km/h 52 % 0.00 in /  0 mm
04:15 31.2 °F /  -0.4 °C 16.0 °F /  -8.9 °C 30.10 in /  1019.2 hPa NW 6.1 mph /  9.8 km/h 11.5 mph /  18.5 km/h 53 % 0.00 in /  0 mm
04:20 31.1 °F /  -0.5 °C 16.8 °F /  -8.4 °C 30.10 in /  1019.2 hPa NW 2.0 mph /  3.2 km/h 3.5 mph /  5.6 km/h 55 % 0.00 in /  0 mm
04:25 31.1 °F /  -0.5 °C 15.9 °F /  -8.9 °C 30.11 in /  1019.5 hPa NW 6.7 mph /  10.8 km/h 11.5 mph /  18.5 km/h 53 % 0.00 in /  0 mm
04:30 31.0 °F /  -0.6 °C 16.3 °F /  -8.7 °C 30.10 in /  1019.2 hPa WNW 4.8 mph /  7.7 km/h 9.2 mph /  14.8 km/h 54 % 0.00 in /  0 mm
04:35 31.0 °F /  -0.6 °C 16.3 °F /  -8.7 °C 30.11 in /  1019.5 hPa NW 4.8 mph /  7.7 km/h 11.5 mph /  18.5 km/h 54 % 0.00 in /  0 mm
04:41 30.9 °F /  -0.6 °C 16.6 °F /  -8.6 °C 30.11 in /  1019.5 hPa WSW 5.9 mph /  9.5 km/h 10.4 mph /  16.7 km/h 55 % 0.00 in /  0 mm
04:46 30.8 °F /  -0.7 °C 16.5 °F /  -8.6 °C 30.11 in /  1019.5 hPa NW 5.7 mph /  9.2 km/h 16.1 mph /  25.9 km/h 55 % 0.00 in /  0 mm
04:51 30.7 °F /  -0.7 °C 16.4 °F /  -8.7 °C 30.11 in /  1019.5 hPa NW 7.7 mph /  12.4 km/h 17.3 mph /  27.8 km/h 55 % 0.00 in /  0 mm
04:56 30.7 °F /  -0.7 °C 16.4 °F /  -8.7 °C 30.11 in /  1019.5 hPa WNW 7.5 mph /  12.1 km/h 11.5 mph /  18.5 km/h 55 % 0.00 in /  0 mm
05:01 30.7 °F /  -0.7 °C 16.8 °F /  -8.4 °C 30.11 in /  1019.5 hPa WSW 5.7 mph /  9.2 km/h 12.7 mph /  20.4 km/h 56 % 0.00 in /  0 mm
05:06 30.6 °F /  -0.8 °C 16.3 °F /  -8.7 °C 30.12 in /  1019.9 hPa NW 5.5 mph /  8.9 km/h 16.1 mph /  25.9 km/h 55 % 0.00 in /  0 mm
05:11 30.6 °F /  -0.8 °C 16.7 °F /  -8.5 °C 30.11 in /  1019.5 hPa West 4.9 mph /  7.9 km/h 9.2 mph /  14.8 km/h 56 % 0.00 in /  0 mm
05:16 30.5 °F /  -0.8 °C 17.1 °F /  -8.3 °C 30.12 in /  1019.9 hPa NW 4.3 mph /  6.9 km/h 11.0 mph /  17.7 km/h 57 % 0.00 in /  0 mm
05:21 30.5 °F /  -0.8 °C 16.7 °F /  -8.5 °C 30.12 in /  1019.9 hPa WNW 6.1 mph /  9.8 km/h 10.4 mph /  16.7 km/h 56 % 0.00 in /  0 mm
05:26 30.4 °F /  -0.9 °C 16.6 °F /  -8.6 °C 30.12 in /  1019.9 hPa NW 8.4 mph /  13.5 km/h 15.0 mph /  24.1 km/h 56 % 0.00 in /  0 mm
05:31 30.3 °F /  -0.9 °C 16.9 °F /  -8.4 °C 30.12 in /  1019.9 hPa WNW 3.5 mph /  5.6 km/h 9.2 mph /  14.8 km/h 57 % 0.00 in /  0 mm
05:36 30.3 °F /  -0.9 °C 16.9 °F /  -8.4 °C 30.13 in /  1020.2 hPa NW 4.5 mph /  7.2 km/h 11.5 mph /  18.5 km/h 57 % 0.00 in /  0 mm
05:42 30.2 °F /  -1 °C 16.8 °F /  -8.4 °C 30.13 in /  1020.2 hPa WSW 8.8 mph /  14.2 km/h 12.7 mph /  20.4 km/h 57 % 0.00 in /  0 mm
05:47 30.2 °F /  -1 °C 16.4 °F /  -8.7 °C 30.13 in /  1020.2 hPa WSW 3.5 mph /  5.6 km/h 8.0 mph /  12.9 km/h 56 % 0.00 in /  0 mm
05:52 30.2 °F /  -1 °C 16.4 °F /  -8.7 °C 30.14 in /  1020.5 hPa West 2.5 mph /  4 km/h 4.6 mph /  7.4 km/h 56 % 0.00 in /  0 mm
05:57 30.2 °F /  -1 °C 16.8 °F /  -8.4 °C 30.14 in /  1020.5 hPa WNW 5.7 mph /  9.2 km/h 12.7 mph /  20.4 km/h 57 % 0.00 in /  0 mm
06:02 30.1 °F /  -1.1 °C 16.3 °F /  -8.7 °C 30.14 in /  1020.5 hPa NW 3.5 mph /  5.6 km/h 11.5 mph /  18.5 km/h 56 % 0.00 in /  0 mm
06:07 30.1 °F /  -1.1 °C 16.7 °F /  -8.5 °C 30.15 in /  1020.9 hPa WSW 4.6 mph /  7.4 km/h 16.1 mph /  25.9 km/h 57 % 0.00 in /  0 mm
06:12 30.1 °F /  -1.1 °C 16.7 °F /  -8.5 °C 30.15 in /  1020.9 hPa WSW 8.1 mph /  13 km/h 11.5 mph /  18.5 km/h 57 % 0.00 in /  0 mm
06:15 30.1 °F /  -1.1 °C 16.7 °F /  -8.5 °C 30.15 in /  1020.9 hPa WNW 6.1 mph /  9.8 km/h 10.0 mph /  16.1 km/h 57 % 0.00 in /  0 mm
06:20 30.1 °F /  -1.1 °C 16.7 °F /  -8.5 °C 30.15 in /  1020.9 hPa West 3.6 mph /  5.8 km/h 15.0 mph /  24.1 km/h 57 % 0.00 in /  0 mm
06:25 30.1 °F /  -1.1 °C 17.1 °F /  -8.3 °C 30.15 in /  1020.9 hPa NW 5.4 mph /  8.7 km/h 10.4 mph /  16.7 km/h 58 % 0.00 in /  0 mm
06:30 30.1 °F /  -1.1 °C 17.1 °F /  -8.3 °C 30.15 in /  1020.9 hPa WSW 4.2 mph /  6.8 km/h 11.5 mph /  18.5 km/h 58 % 0.00 in /  0 mm
06:35 30.0 °F /  -1.1 °C 17.0 °F /  -8.3 °C 30.15 in /  1020.9 hPa West 7.4 mph /  11.9 km/h 15.0 mph /  24.1 km/h 58 % 0.00 in /  0 mm
06:40 30.1 °F /  -1.1 °C 16.7 °F /  -8.5 °C 30.15 in /  1020.9 hPa WSW 6.6 mph /  10.6 km/h 9.2 mph /  14.8 km/h 57 % 0.00 in /  0 mm
06:45 30.1 °F /  -1.1 °C 17.1 °F /  -8.3 °C 30.16 in /  1021.2 hPa WNW 2.6 mph /  4.2 km/h 9.2 mph /  14.8 km/h 58 % 0.00 in /  0 mm
06:50 30.2 °F /  -1 °C 16.8 °F /  -8.4 °C 30.15 in /  1020.9 hPa West 4.7 mph /  7.6 km/h 10.4 mph /  16.7 km/h 57 % 0.00 in /  0 mm
06:55 30.3 °F /  -0.9 °C 16.9 °F /  -8.4 °C 30.16 in /  1021.2 hPa WNW 3.9 mph /  6.3 km/h 10.4 mph /  16.7 km/h 57 % 0.00 in /  0 mm
07:01 30.4 °F /  -0.9 °C 17.4 °F /  -8.1 °C 30.16 in /  1021.2 hPa West 3.3 mph /  5.3 km/h 6.9 mph /  11.1 km/h 58 % 0.00 in /  0 mm
07:06 30.6 °F /  -0.8 °C 17.6 °F /  -8 °C 30.16 in /  1021.2 hPa NW 7.9 mph /  12.7 km/h 13.0 mph /  20.9 km/h 58 % 0.00 in /  0 mm
07:11 30.8 °F /  -0.7 °C 16.9 °F /  -8.4 °C 30.16 in /  1021.2 hPa West 5.6 mph /  9 km/h 11.5 mph /  18.5 km/h 56 % 0.00 in /  0 mm
07:16 31.0 °F /  -0.6 °C 17.5 °F /  -8.1 °C 30.16 in /  1021.2 hPa WSW 8.5 mph /  13.7 km/h 12.7 mph /  20.4 km/h 57 % 0.00 in /  0 mm
07:21 31.1 °F /  -0.5 °C 17.2 °F /  -8.2 °C 30.17 in /  1021.6 hPa WNW 6.9 mph /  11.1 km/h 12.7 mph /  20.4 km/h 56 % 0.00 in /  0 mm
07:26 31.2 °F /  -0.4 °C 17.3 °F /  -8.2 °C 30.16 in /  1021.2 hPa West 5.1 mph /  8.2 km/h 11.5 mph /  18.5 km/h 56 % 0.00 in /  0 mm
07:31 31.2 °F /  -0.4 °C 17.3 °F /  -8.2 °C 30.17 in /  1021.6 hPa WNW 3.5 mph /  5.6 km/h 13.0 mph /  20.9 km/h 56 % 0.00 in /  0 mm
07:36 31.4 °F /  -0.3 °C 17.9 °F /  -7.8 °C 30.17 in /  1021.6 hPa WNW 5.0 mph /  8 km/h 6.0 mph /  9.7 km/h 57 % 0.00 in /  0 mm
07:37 31.4 °F /  -0.3 °C 17.9 °F /  -7.8 °C 30.17 in /  1021.6 hPa West 5.1 mph /  8.2 km/h 9.0 mph /  14.5 km/h 57 % 0.00 in /  0 mm
07:42 31.5 °F /  -0.3 °C 18.0 °F /  -7.8 °C 30.17 in /  1021.6 hPa NW 1.8 mph /  2.9 km/h 8.1 mph /  13 km/h 57 % 0.00 in /  0 mm
07:47 31.7 °F /  -0.2 °C 18.2 °F /  -7.7 °C 30.17 in /  1021.6 hPa NW 3.6 mph /  5.8 km/h 7.0 mph /  11.3 km/h 57 % 0.00 in /  0 mm
07:52 31.9 °F /  -0.1 °C 18.4 °F /  -7.6 °C 30.17 in /  1021.6 hPa WNW 7.1 mph /  11.4 km/h 8.1 mph /  13 km/h 57 % 0.00 in /  0 mm
07:57 32.0 °F /  0 °C 18.1 °F /  -7.7 °C 30.18 in /  1021.9 hPa NW 2.8 mph /  4.5 km/h 11.0 mph /  17.7 km/h 56 % 0.00 in /  0 mm
08:02 32.1 °F /  0.1 °C 18.2 °F /  -7.7 °C 30.18 in /  1021.9 hPa WNW 7.6 mph /  12.2 km/h 15.0 mph /  24.1 km/h 56 % 0.00 in /  0 mm
08:07 32.2 °F /  0.1 °C 18.2 °F /  -7.7 °C 30.18 in /  1021.9 hPa NW 4.9 mph /  7.9 km/h 8.1 mph /  13 km/h 56 % 0.00 in /  0 mm
08:12 32.4 °F /  0.2 °C 17.6 °F /  -8 °C 30.18 in /  1021.9 hPa WNW 6.3 mph /  10.1 km/h 10.4 mph /  16.7 km/h 54 % 0.00 in /  0 mm
08:17 32.6 °F /  0.3 °C 18.2 °F /  -7.7 °C 30.18 in /  1021.9 hPa WNW 7.1 mph /  11.4 km/h 11.5 mph /  18.5 km/h 55 % 0.00 in /  0 mm
08:22 32.7 °F /  0.4 °C 18.3 °F /  -7.6 °C 30.18 in /  1021.9 hPa West 9.2 mph /  14.8 km/h 13.8 mph /  22.2 km/h 55 % 0.00 in /  0 mm
08:27 32.8 °F /  0.4 °C 18.4 °F /  -7.6 °C 30.19 in /  1022.2 hPa WNW 6.2 mph /  10 km/h 9.2 mph /  14.8 km/h 55 % 0.00 in /  0 mm
08:32 33.0 °F /  0.6 °C 19.0 °F /  -7.2 °C 30.19 in /  1022.2 hPa West 5.5 mph /  8.9 km/h 9.0 mph /  14.5 km/h 56 % 0.00 in /  0 mm
08:38 33.3 °F /  0.7 °C 18.4 °F /  -7.6 °C 30.19 in /  1022.2 hPa NNW 7.4 mph /  11.9 km/h 11.5 mph /  18.5 km/h 54 % 0.00 in /  0 mm
08:43 33.4 °F /  0.8 °C 18.5 °F /  -7.5 °C 30.19 in /  1022.2 hPa NW 5.4 mph /  8.7 km/h 11.5 mph /  18.5 km/h 54 % 0.00 in /  0 mm
08:48 33.5 °F /  0.8 °C 19.0 °F /  -7.2 °C 30.19 in /  1022.2 hPa NW 4.8 mph /  7.7 km/h 11.5 mph /  18.5 km/h 55 % 0.00 in /  0 mm
08:53 33.5 °F /  0.8 °C 18.6 °F /  -7.4 °C 30.19 in /  1022.2 hPa WNW 4.3 mph /  6.9 km/h 9.2 mph /  14.8 km/h 54 % 0.00 in /  0 mm
08:58 33.6 °F /  0.9 °C 18.7 °F /  -7.4 °C 30.19 in /  1022.2 hPa West 7.5 mph /  12.1 km/h 12.7 mph /  20.4 km/h 54 % 0.00 in /  0 mm
09:03 33.6 °F /  0.9 °C 18.7 °F /  -7.4 °C 30.19 in /  1022.2 hPa NW 4.1 mph /  6.6 km/h 10.0 mph /  16.1 km/h 54 % 0.00 in /  0 mm
09:08 33.7 °F /  0.9 °C 18.8 °F /  -7.3 °C 30.19 in /  1022.2 hPa WNW 6.0 mph /  9.7 km/h 10.0 mph /  16.1 km/h 54 % 0.00 in /  0 mm
09:13 33.9 °F /  1.1 °C 19.0 °F /  -7.2 °C 30.19 in /  1022.2 hPa WNW 6.1 mph /  9.8 km/h 6.1 mph /  9.8 km/h 54 % 0.00 in /  0 mm
09:18 33.9 °F /  1.1 °C 18.6 °F /  -7.4 °C 30.19 in /  1022.2 hPa WNW 3.0 mph /  4.8 km/h 9.0 mph /  14.5 km/h 53 % 0.00 in /  0 mm
09:23 34.1 °F /  1.2 °C 18.3 °F /  -7.6 °C 30.19 in /  1022.2 hPa WNW 7.2 mph /  11.6 km/h 10.4 mph /  16.7 km/h 52 % 0.00 in /  0 mm
09:25 34.1 °F /  1.2 °C 18.3 °F /  -7.6 °C 30.19 in /  1022.2 hPa WNW 4.6 mph /  7.4 km/h 8.1 mph /  13 km/h 52 % 0.00 in /  0 mm
09:30 34.4 °F /  1.3 °C 19.0 °F /  -7.2 °C 30.19 in /  1022.2 hPa West 4.7 mph /  7.6 km/h 11.0 mph /  17.7 km/h 53 % 0.00 in /  0 mm
09:35 34.6 °F /  1.4 °C 19.6 °F /  -6.9 °C 30.20 in /  1022.6 hPa WNW 4.3 mph /  6.9 km/h 9.0 mph /  14.5 km/h 54 % 0.00 in /  0 mm
09:40 34.9 °F /  1.6 °C 19.5 °F /  -6.9 °C 30.19 in /  1022.2 hPa WNW 7.8 mph /  12.6 km/h 12.7 mph /  20.4 km/h 53 % 0.00 in /  0 mm
09:45 35.0 °F /  1.7 °C 19.1 °F /  -7.2 °C 30.19 in /  1022.2 hPa NW 7.0 mph /  11.3 km/h 12.0 mph /  19.3 km/h 52 % 0.00 in /  0 mm
09:50 35.2 °F /  1.8 °C 18.9 °F /  -7.3 °C 30.19 in /  1022.2 hPa West 5.7 mph /  9.2 km/h 10.4 mph /  16.7 km/h 51 % 0.00 in /  0 mm
09:55 35.1 °F /  1.7 °C 17.8 °F /  -7.9 °C 30.19 in /  1022.2 hPa WSW 6.0 mph /  9.7 km/h 11.5 mph /  18.5 km/h 49 % 0.00 in /  0 mm
10:00 35.3 °F /  1.8 °C 19.0 °F /  -7.2 °C 30.19 in /  1022.2 hPa WSW 6.7 mph /  10.8 km/h 11.5 mph /  18.5 km/h 51 % 0.00 in /  0 mm
10:05 35.6 °F /  2 °C 18.8 °F /  -7.3 °C 30.19 in /  1022.2 hPa West 4.2 mph /  6.8 km/h 12.7 mph /  20.4 km/h 50 % 0.00 in /  0 mm
10:10 36.1 °F /  2.3 °C 19.2 °F /  -7.1 °C 30.19 in /  1022.2 hPa West 4.0 mph /  6.4 km/h 9.2 mph /  14.8 km/h 50 % 0.00 in /  0 mm
10:15 36.2 °F /  2.3 °C 19.3 °F /  -7.1 °C 30.19 in /  1022.2 hPa West 2.7 mph /  4.3 km/h 10.4 mph /  16.7 km/h 50 % 0.00 in /  0 mm
10:20 36.4 °F /  2.4 °C 18.1 °F /  -7.7 °C 30.19 in /  1022.2 hPa WNW 4.7 mph /  7.6 km/h 13.8 mph /  22.2 km/h 47 % 0.00 in /  0 mm
10:25 36.7 °F /  2.6 °C 18.8 °F /  -7.3 °C 30.19 in /  1022.2 hPa West 4.9 mph /  7.9 km/h 11.0 mph /  17.7 km/h 48 % 0.00 in /  0 mm
10:31 36.9 °F /  2.7 °C 18.0 °F /  -7.8 °C 30.19 in /  1022.2 hPa WNW 5.6 mph /  9 km/h 12.7 mph /  20.4 km/h 46 % 0.00 in /  0 mm
10:36 36.9 °F /  2.7 °C 18.5 °F /  -7.5 °C 30.19 in /  1022.2 hPa WNW 4.4 mph /  7.1 km/h 9.2 mph /  14.8 km/h 47 % 0.00 in /  0 mm
10:41 37.0 °F /  2.8 °C 18.6 °F /  -7.4 °C 30.19 in /  1022.2 hPa NW 5.4 mph /  8.7 km/h 12.7 mph /  20.4 km/h 47 % 0.00 in /  0 mm
10:46 37.1 °F /  2.8 °C 17.7 °F /  -7.9 °C 30.20 in /  1022.6 hPa West 7.9 mph /  12.7 km/h 12.0 mph /  19.3 km/h 45 % 0.00 in /  0 mm
10:51 37.0 °F /  2.8 °C 18.1 °F /  -7.7 °C 30.19 in /  1022.2 hPa WNW 3.0 mph /  4.8 km/h 10.4 mph /  16.7 km/h 46 % 0.00 in /  0 mm
10:56 37.3 °F /  2.9 °C 17.4 °F /  -8.1 °C 30.19 in /  1022.2 hPa WSW 3.7 mph /  6 km/h 11.5 mph /  18.5 km/h 44 % 0.00 in /  0 mm
11:01 37.5 °F /  3.1 °C 18.1 °F /  -7.7 °C 30.20 in /  1022.6 hPa WNW 6.0 mph /  9.7 km/h 11.5 mph /  18.5 km/h 45 % 0.00 in /  0 mm
11:02 37.5 °F /  3.1 °C 17.0 °F /  -8.3 °C 30.20 in /  1022.6 hPa WNW 7.3 mph /  11.7 km/h 9.2 mph /  14.8 km/h 43 % 0.00 in /  0 mm
11:08 37.3 °F /  2.9 °C 17.4 °F /  -8.1 °C 30.20 in /  1022.6 hPa NW 6.2 mph /  10 km/h 15.0 mph /  24.1 km/h 44 % 0.00 in /  0 mm
11:13 37.2 °F /  2.9 °C 16.7 °F /  -8.5 °C 30.20 in /  1022.6 hPa NW 7.3 mph /  11.7 km/h 15.0 mph /  24.1 km/h 43 % 0.00 in /  0 mm
11:18 37.3 °F /  2.9 °C 17.9 °F /  -7.8 °C 30.20 in /  1022.6 hPa West 6.0 mph /  9.7 km/h 11.5 mph /  18.5 km/h 45 % 0.00 in /  0 mm
11:23 37.3 °F /  2.9 °C 17.4 °F /  -8.1 °C 30.20 in /  1022.6 hPa WSW 5.8 mph /  9.3 km/h 11.5 mph /  18.5 km/h 44 % 0.00 in /  0 mm
11:28 36.9 °F /  2.7 °C 17.5 °F /  -8.1 °C 30.20 in /  1022.6 hPa NW 5.8 mph /  9.3 km/h 9.2 mph /  14.8 km/h 45 % 0.00 in /  0 mm
11:33 36.9 °F /  2.7 °C 18.0 °F /  -7.8 °C 30.20 in /  1022.6 hPa West 5.0 mph /  8 km/h 9.0 mph /  14.5 km/h 46 % 0.00 in /  0 mm
11:38 36.6 °F /  2.6 °C 16.7 °F /  -8.5 °C 30.20 in /  1022.6 hPa West 1.6 mph /  2.6 km/h 9.2 mph /  14.8 km/h 44 % 0.00 in /  0 mm
11:43 36.6 °F /  2.6 °C 16.7 °F /  -8.5 °C 30.20 in /  1022.6 hPa WNW 6.0 mph /  9.7 km/h 14.0 mph /  22.5 km/h 44 % 0.00 in /  0 mm
11:48 37.1 °F /  2.8 °C 17.7 °F /  -7.9 °C 30.20 in /  1022.6 hPa West 2.9 mph /  4.7 km/h 8.1 mph /  13 km/h 45 % 0.00 in /  0 mm
11:53 37.4 °F /  3 °C 18.0 °F /  -7.8 °C 30.20 in /  1022.6 hPa WNW 5.0 mph /  8 km/h 16.0 mph /  25.7 km/h 45 % 0.00 in /  0 mm
11:58 37.6 °F /  3.1 °C 17.1 °F /  -8.3 °C 30.20 in /  1022.6 hPa WNW 5.4 mph /  8.7 km/h 11.5 mph /  18.5 km/h 43 % 0.00 in /  0 mm
12:03 37.1 °F /  2.8 °C 16.6 °F /  -8.6 °C 30.20 in /  1022.6 hPa WNW 7.7 mph /  12.4 km/h 11.5 mph /  18.5 km/h 43 % 0.00 in /  0 mm
12:08 37.0 °F /  2.8 °C 17.1 °F /  -8.3 °C 30.20 in /  1022.6 hPa NNW 7.8 mph /  12.6 km/h 13.0 mph /  20.9 km/h 44 % 0.00 in /  0 mm
12:13 37.2 °F /  2.9 °C 17.3 °F /  -8.2 °C 30.19 in /  1022.2 hPa NNW 5.8 mph /  9.3 km/h 11.5 mph /  18.5 km/h 44 % 0.00 in /  0 mm
12:18 37.1 °F /  2.8 °C 17.2 °F /  -8.2 °C 30.19 in /  1022.2 hPa WSW 3.6 mph /  5.8 km/h 10.4 mph /  16.7 km/h 44 % 0.00 in /  0 mm
12:23 37.4 °F /  3 °C 18.5 °F /  -7.5 °C 30.20 in /  1022.6 hPa WNW 4.6 mph /  7.4 km/h 11.0 mph /  17.7 km/h 46 % 0.00 in /  0 mm
12:28 37.5 °F /  3.1 °C 18.1 °F /  -7.7 °C 30.20 in /  1022.6 hPa NW 3.5 mph /  5.6 km/h 6.9 mph /  11.1 km/h 45 % 0.00 in /  0 mm
12:34 37.4 °F /  3 °C 18.0 °F /  -7.8 °C 30.19 in /  1022.2 hPa North 6.5 mph /  10.5 km/h 11.5 mph /  18.5 km/h 45 % 0.00 in /  0 mm
12:39 37.2 °F /  2.9 °C 17.3 °F /  -8.2 °C 30.19 in /  1022.2 hPa NW 4.5 mph /  7.2 km/h 6.0 mph /  9.7 km/h 44 % 0.00 in /  0 mm
12:44 37.5 °F /  3.1 °C 18.6 °F /  -7.4 °C 30.19 in /  1022.2 hPa SW 4.2 mph /  6.8 km/h 13.8 mph /  22.2 km/h 46 % 0.00 in /  0 mm
12:49 37.9 °F /  3.3 °C 17.9 °F /  -7.8 °C 30.18 in /  1021.9 hPa West 5.4 mph /  8.7 km/h 9.2 mph /  14.8 km/h 44 % 0.00 in /  0 mm
12:54 37.7 °F /  3.2 °C 17.2 °F /  -8.2 °C 30.19 in /  1022.2 hPa WNW 5.2 mph /  8.4 km/h 9.2 mph /  14.8 km/h 43 % 0.00 in /  0 mm
12:59 37.5 °F /  3.1 °C 17.0 °F /  -8.3 °C 30.18 in /  1021.9 hPa WSW 5.2 mph /  8.4 km/h 10.0 mph /  16.1 km/h 43 % 0.00 in /  0 mm
13:04 37.6 °F /  3.1 °C 17.1 °F /  -8.3 °C 30.18 in /  1021.9 hPa NNW 4.7 mph /  7.6 km/h 13.8 mph /  22.2 km/h 43 % 0.00 in /  0 mm
13:09 37.9 °F /  3.3 °C 16.8 °F /  -8.4 °C 30.18 in /  1021.9 hPa West 5.7 mph /  9.2 km/h 12.7 mph /  20.4 km/h 42 % 0.00 in /  0 mm
13:14 38.3 °F /  3.5 °C 17.7 °F /  -7.9 °C 30.18 in /  1021.9 hPa NNW 6.8 mph /  10.9 km/h 10.4 mph /  16.7 km/h 43 % 0.00 in /  0 mm
13:19 38.6 °F /  3.7 °C 16.3 °F /  -8.7 °C 30.18 in /  1021.9 hPa West 5.9 mph /  9.5 km/h 9.2 mph /  14.8 km/h 40 % 0.00 in /  0 mm
13:24 38.6 °F /  3.7 °C 17.5 °F /  -8.1 °C 30.18 in /  1021.9 hPa WSW 4.8 mph /  7.7 km/h 8.1 mph /  13 km/h 42 % 0.00 in /  0 mm
13:29 38.8 °F /  3.8 °C 17.1 °F /  -8.3 °C 30.18 in /  1021.9 hPa West 7.1 mph /  11.4 km/h 11.5 mph /  18.5 km/h 41 % 0.00 in /  0 mm
13:34 38.9 °F /  3.8 °C 16.6 °F /  -8.6 °C 30.18 in /  1021.9 hPa WNW 6.5 mph /  10.5 km/h 10.4 mph /  16.7 km/h 40 % 0.00 in /  0 mm
13:40 38.9 °F /  3.8 °C 16.6 °F /  -8.6 °C 30.17 in /  1021.6 hPa WNW 6.1 mph /  9.8 km/h 10.0 mph /  16.1 km/h 40 % 0.00 in /  0 mm
13:45 38.9 °F /  3.8 °C 16.0 °F /  -8.9 °C 30.17 in /  1021.6 hPa WSW 4.1 mph /  6.6 km/h 10.0 mph /  16.1 km/h 39 % 0.00 in /  0 mm
13:50 39.1 °F /  3.9 °C 16.2 °F /  -8.8 °C 30.17 in /  1021.6 hPa NW 2.0 mph /  3.2 km/h 4.6 mph /  7.4 km/h 39 % 0.00 in /  0 mm
13:55 39.3 °F /  4.1 °C 17.0 °F /  -8.3 °C 30.17 in /  1021.6 hPa WNW 6.3 mph /  10.1 km/h 9.2 mph /  14.8 km/h 40 % 0.00 in /  0 mm
14:00 39.6 °F /  4.2 °C 16.6 °F /  -8.6 °C 30.17 in /  1021.6 hPa WNW 5.7 mph /  9.2 km/h 11.5 mph /  18.5 km/h 39 % 0.00 in /  0 mm
14:05 39.5 °F /  4.2 °C 16.6 °F /  -8.6 °C 30.17 in /  1021.6 hPa NW 6.7 mph /  10.8 km/h 7.0 mph /  11.3 km/h 39 % 0.00 in /  0 mm
14:10 39.4 °F /  4.1 °C 16.5 °F /  -8.6 °C 30.17 in /  1021.6 hPa NW 2.7 mph /  4.3 km/h 9.2 mph /  14.8 km/h 39 % 0.00 in /  0 mm
14:15 39.3 °F /  4.1 °C 17.5 °F /  -8.1 °C 30.17 in /  1021.6 hPa NW 2.0 mph /  3.2 km/h 4.6 mph /  7.4 km/h 41 % 0.00 in /  0 mm
14:20 39.2 °F /  4 °C 16.3 °F /  -8.7 °C 30.17 in /  1021.6 hPa WNW 5.3 mph /  8.5 km/h 10.4 mph /  16.7 km/h 39 % 0.00 in /  0 mm
14:25 38.7 °F /  3.7 °C 15.2 °F /  -9.3 °C 30.17 in /  1021.6 hPa NW 4.0 mph /  6.4 km/h 8.1 mph /  13 km/h 38 % 0.00 in /  0 mm
14:30 38.3 °F /  3.5 °C 16.1 °F /  -8.8 °C 30.17 in /  1021.6 hPa WNW 4.9 mph /  7.9 km/h 11.0 mph /  17.7 km/h 40 % 0.00 in /  0 mm
14:35 37.8 °F /  3.2 °C 15.0 °F /  -9.4 °C 30.17 in /  1021.6 hPa WNW 5.7 mph /  9.2 km/h 6.9 mph /  11.1 km/h 39 % 0.00 in /  0 mm
14:40 37.6 °F /  3.1 °C 15.4 °F /  -9.2 °C 30.17 in /  1021.6 hPa WSW 5.7 mph /  9.2 km/h 10.4 mph /  16.7 km/h 40 % 0.00 in /  0 mm
14:45 37.6 °F /  3.1 °C 14.8 °F /  -9.6 °C 30.17 in /  1021.6 hPa WSW 3.9 mph /  6.3 km/h 9.0 mph /  14.5 km/h 39 % 0.00 in /  0 mm
14:51 37.5 °F /  3.1 °C 14.2 °F /  -9.9 °C 30.17 in /  1021.6 hPa NW 5.4 mph /  8.7 km/h 8.1 mph /  13 km/h 38 % 0.00 in /  0 mm
14:56 37.5 °F /  3.1 °C 14.2 °F /  -9.9 °C 30.17 in /  1021.6 hPa WNW 4.9 mph /  7.9 km/h 9.2 mph /  14.8 km/h 38 % 0.00 in /  0 mm
15:01 37.4 °F /  3 °C 14.1 °F /  -9.9 °C 30.17 in /  1021.6 hPa NW 3.1 mph /  5 km/h 6.9 mph /  11.1 km/h 38 % 0.00 in /  0 mm
15:06 37.3 °F /  2.9 °C 14.0 °F /  -10 °C 30.17 in /  1021.6 hPa West 7.4 mph /  11.9 km/h 11.5 mph /  18.5 km/h 38 % 0.00 in /  0 mm
15:11 37.3 °F /  2.9 °C 12.7 °F /  -10.7 °C 30.16 in /  1021.2 hPa WSW 4.2 mph /  6.8 km/h 9.2 mph /  14.8 km/h 36 % 0.00 in /  0 mm
15:16 37.2 °F /  2.9 °C 12.0 °F /  -11.1 °C 30.16 in /  1021.2 hPa North 4.5 mph /  7.2 km/h 11.0 mph /  17.7 km/h 35 % 0.00 in /  0 mm
15:21 37.2 °F /  2.9 °C 12.7 °F /  -10.7 °C 30.17 in /  1021.6 hPa WNW 4.1 mph /  6.6 km/h 11.5 mph /  18.5 km/h 36 % 0.00 in /  0 mm
15:26 37.1 °F /  2.8 °C 11.9 °F /  -11.2 °C 30.17 in /  1021.6 hPa WNW 5.0 mph /  8 km/h 10.4 mph /  16.7 km/h 35 % 0.00 in /  0 mm
15:31 37.0 °F /  2.8 °C 11.2 °F /  -11.6 °C 30.17 in /  1021.6 hPa WNW 5.9 mph /  9.5 km/h 14.0 mph /  22.5 km/h 34 % 0.00 in /  0 mm
15:36 36.9 °F /  2.7 °C 12.4 °F /  -10.9 °C 30.17 in /  1021.6 hPa West 3.8 mph /  6.1 km/h 8.1 mph /  13 km/h 36 % 0.00 in /  0 mm
15:41 36.8 °F /  2.7 °C 11.0 °F /  -11.7 °C 30.17 in /  1021.6 hPa WNW 9.0 mph /  14.5 km/h 15.0 mph /  24.1 km/h 34 % 0.00 in /  0 mm
15:46 36.8 °F /  2.7 °C 11.7 °F /  -11.3 °C 30.17 in /  1021.6 hPa WSW 7.2 mph /  11.6 km/h 15.0 mph /  24.1 km/h 35 % 0.00 in /  0 mm
15:51 36.8 °F /  2.7 °C 11.0 °F /  -11.7 °C 30.17 in /  1021.6 hPa WNW 5.0 mph /  8 km/h 10.4 mph /  16.7 km/h 34 % 0.00 in /  0 mm
15:54 36.8 °F /  2.7 °C 11.7 °F /  -11.3 °C 30.17 in /  1021.6 hPa WNW 7.1 mph /  11.4 km/h 12.7 mph /  20.4 km/h 35 % 0.00 in /  0 mm
16:00 36.8 °F /  2.7 °C 11.0 °F /  -11.7 °C 30.17 in /  1021.6 hPa West 6.6 mph /  10.6 km/h 13.8 mph /  22.2 km/h 34 % 0.00 in /  0 mm
16:05 36.9 °F /  2.7 °C 12.4 °F /  -10.9 °C 30.17 in /  1021.6 hPa NW 7.9 mph /  12.7 km/h 14.0 mph /  22.5 km/h 36 % 0.00 in /  0 mm
16:10 37.0 °F /  2.8 °C 11.8 °F /  -11.2 °C 30.17 in /  1021.6 hPa WNW 6.2 mph /  10 km/h 16.0 mph /  25.7 km/h 35 % 0.00 in /  0 mm
16:15 36.9 °F /  2.7 °C 9.7 °F /  -12.4 °C 30.17 in /  1021.6 hPa WNW 6.0 mph /  9.7 km/h 12.7 mph /  20.4 km/h 32 % 0.00 in /  0 mm
16:20 36.8 °F /  2.7 °C 11.0 °F /  -11.7 °C 30.18 in /  1021.9 hPa WNW 7.5 mph /  12.1 km/h 12.7 mph /  20.4 km/h 34 % 0.00 in /  0 mm
16:25 36.7 °F /  2.6 °C 10.9 °F /  -11.7 °C 30.18 in /  1021.9 hPa WNW 5.0 mph /  8 km/h 5.8 mph /  9.3 km/h 34 % 0.00 in /  0 mm
16:30 36.6 °F /  2.6 °C 10.8 °F /  -11.8 °C 30.18 in /  1021.9 hPa West 4.3 mph /  6.9 km/h 12.7 mph /  20.4 km/h 34 % 0.00 in /  0 mm
16:35 36.5 °F /  2.5 °C 10.7 °F /  -11.8 °C 30.18 in /  1021.9 hPa West 7.0 mph /  11.3 km/h 11.5 mph /  18.5 km/h 34 % 0.00 in /  0 mm
16:40 36.5 °F /  2.5 °C 10.7 °F /  -11.8 °C 30.18 in /  1021.9 hPa West 5.8 mph /  9.3 km/h 8.1 mph /  13 km/h 34 % 0.00 in /  0 mm
16:45 36.5 °F /  2.5 °C 12.7 °F /  -10.7 °C 30.18 in /  1021.9 hPa WSW 5.5 mph /  8.9 km/h 11.5 mph /  18.5 km/h 37 % 0.00 in /  0 mm
16:50 36.4 °F /  2.4 °C 11.9 °F /  -11.2 °C 30.18 in /  1021.9 hPa WNW 4.6 mph /  7.4 km/h 9.2 mph /  14.8 km/h 36 % 0.00 in /  0 mm
16:55 36.4 °F /  2.4 °C 11.3 °F /  -11.5 °C 30.18 in /  1021.9 hPa West 4.2 mph /  6.8 km/h 8.1 mph /  13 km/h 35 % 0.00 in /  0 mm
17:00 36.4 °F /  2.4 °C 11.3 °F /  -11.5 °C 30.18 in /  1021.9 hPa NW 6.7 mph /  10.8 km/h 11.5 mph /  18.5 km/h 35 % 0.00 in /  0 mm
17:06 36.3 °F /  2.4 °C 11.2 °F /  -11.6 °C 30.19 in /  1022.2 hPa West 6.2 mph /  10 km/h 11.5 mph /  18.5 km/h 35 % 0.00 in /  0 mm
17:11 36.2 °F /  2.3 °C 11.1 °F /  -11.6 °C 30.19 in /  1022.2 hPa WNW 5.5 mph /  8.9 km/h 11.0 mph /  17.7 km/h 35 % 0.00 in /  0 mm
17:16 36.1 °F /  2.3 °C 11.7 °F /  -11.3 °C 30.19 in /  1022.2 hPa West 5.6 mph /  9 km/h 11.5 mph /  18.5 km/h 36 % 0.00 in /  0 mm
17:21 36.1 °F /  2.3 °C 12.3 °F /  -10.9 °C 30.19 in /  1022.2 hPa WSW 4.8 mph /  7.7 km/h 12.0 mph /  19.3 km/h 37 % 0.00 in /  0 mm
17:26 36.0 °F /  2.2 °C 12.2 °F /  -11 °C 30.20 in /  1022.6 hPa SW 5.8 mph /  9.3 km/h 12.0 mph /  19.3 km/h 37 % 0.00 in /  0 mm
17:31 35.9 °F /  2.2 °C 12.7 °F /  -10.7 °C 30.20 in /  1022.6 hPa NNW 9.4 mph /  15.1 km/h 17.3 mph /  27.8 km/h 38 % 0.00 in /  0 mm
17:36 35.9 °F /  2.2 °C 13.3 °F /  -10.4 °C 30.20 in /  1022.6 hPa West 4.0 mph /  6.4 km/h 10.4 mph /  16.7 km/h 39 % 0.00 in /  0 mm
17:41 35.8 °F /  2.1 °C 13.2 °F /  -10.4 °C 30.20 in /  1022.6 hPa WNW 4.2 mph /  6.8 km/h 10.4 mph /  16.7 km/h 39 % 0.00 in /  0 mm
17:51 35.6 °F /  2 °C 12.5 °F /  -10.8 °C 30.20 in /  1022.6 hPa WNW 5.9 mph /  9.5 km/h 13.8 mph /  22.2 km/h 38 % 0.00 in /  0 mm
17:56 35.7 °F /  2.1 °C 12.5 °F /  -10.8 °C 30.20 in /  1022.6 hPa WNW 6.7 mph /  10.8 km/h 9.2 mph /  14.8 km/h 38 % 0.00 in /  0 mm
18:01 35.8 °F /  2.1 °C 13.2 °F /  -10.4 °C 30.21 in /  1022.9 hPa NW 8.2 mph /  13.2 km/h 15.0 mph /  24.1 km/h 39 % 0.00 in /  0 mm
18:06 36.0 °F /  2.2 °C 12.8 °F /  -10.7 °C 30.21 in /  1022.9 hPa NNW 10.7 mph /  17.2 km/h 18.4 mph /  29.6 km/h 38 % 0.00 in /  0 mm
18:11 36.1 °F /  2.3 °C 14.6 °F /  -9.7 °C 30.21 in /  1022.9 hPa WNW 10.4 mph /  16.7 km/h 20.7 mph /  33.3 km/h 41 % 0.00 in /  0 mm
18:17 35.9 °F /  2.2 °C 16.6 °F /  -8.6 °C 30.23 in /  1023.6 hPa WNW 10.0 mph /  16.1 km/h 20.7 mph /  33.3 km/h 45 % 0.00 in /  0 mm
18:22 35.6 °F /  2 °C 17.3 °F /  -8.2 °C 30.23 in /  1023.6 hPa West 8.6 mph /  13.8 km/h 16.0 mph /  25.7 km/h 47 % 0.00 in /  0 mm
18:27 35.2 °F /  1.8 °C 13.8 °F /  -10.1 °C 30.23 in /  1023.6 hPa WNW 8.1 mph /  13 km/h 18.0 mph /  29 km/h 41 % 0.00 in /  0 mm
18:32 34.9 °F /  1.6 °C 14.1 °F /  -9.9 °C 30.23 in /  1023.6 hPa West 9.3 mph /  15 km/h 16.1 mph /  25.9 km/h 42 % 0.00 in /  0 mm
18:37 34.7 °F /  1.5 °C 15.0 °F /  -9.4 °C 30.23 in /  1023.6 hPa WNW 12.1 mph /  19.5 km/h 19.6 mph /  31.5 km/h 44 % 0.00 in /  0 mm
18:42 34.4 °F /  1.3 °C 15.2 °F /  -9.3 °C 30.24 in /  1023.9 hPa West 7.8 mph /  12.6 km/h 15.0 mph /  24.1 km/h 45 % 0.00 in /  0 mm
18:47 34.2 °F /  1.2 °C 17.0 °F /  -8.3 °C 30.25 in /  1024.3 hPa SW 6.8 mph /  10.9 km/h 18.4 mph /  29.6 km/h 49 % 0.00 in /  0 mm
18:52 33.9 °F /  1.1 °C 18.1 °F /  -7.7 °C 30.25 in /  1024.3 hPa West 8.3 mph /  13.4 km/h 18.4 mph /  29.6 km/h 52 % 0.00 in /  0 mm
18:57 33.7 °F /  0.9 °C 18.8 °F /  -7.3 °C 30.26 in /  1024.6 hPa NW 4.6 mph /  7.4 km/h 11.5 mph /  18.5 km/h 54 % 0.00 in /  0 mm
19:02 33.4 °F /  0.8 °C 18.9 °F /  -7.3 °C 30.26 in /  1024.6 hPa WNW 10.9 mph /  17.5 km/h 18.0 mph /  29 km/h 55 % 0.00 in /  0 mm
19:07 33.3 °F /  0.7 °C 18.4 °F /  -7.6 °C 30.26 in /  1024.6 hPa NNW 8.9 mph /  14.3 km/h 17.3 mph /  27.8 km/h 54 % 0.00 in /  0 mm
19:12 33.2 °F /  0.7 °C 17.9 °F /  -7.8 °C 30.27 in /  1024.9 hPa NNW 11.8 mph /  19 km/h 21.9 mph /  35.2 km/h 53 % 0.00 in /  0 mm
19:17 32.9 °F /  0.5 °C 18.5 °F /  -7.5 °C 30.27 in /  1024.9 hPa West 10.5 mph /  16.9 km/h 17.0 mph /  27.4 km/h 55 % 0.00 in /  0 mm
19:23 32.7 °F /  0.4 °C 18.3 °F /  -7.6 °C 30.27 in /  1024.9 hPa WNW 9.6 mph /  15.4 km/h 17.3 mph /  27.8 km/h 55 % 0.00 in /  0 mm
19:28 32.6 °F /  0.3 °C 19.8 °F /  -6.8 °C 30.27 in /  1024.9 hPa NNW 8.9 mph /  14.3 km/h 13.8 mph /  22.2 km/h 59 % 0.00 in /  0 mm
19:33 32.6 °F /  0.3 °C 20.2 °F /  -6.6 °C 30.27 in /  1024.9 hPa NW 6.4 mph /  10.3 km/h 13.8 mph /  22.2 km/h 60 % 0.00 in /  0 mm
19:38 32.5 °F /  0.3 °C 19.7 °F /  -6.8 °C 30.27 in /  1024.9 hPa West 7.7 mph /  12.4 km/h 11.5 mph /  18.5 km/h 59 % 0.00 in /  0 mm
19:43 32.3 °F /  0.2 °C 19.2 °F /  -7.1 °C 30.27 in /  1024.9 hPa WNW 5.7 mph /  9.2 km/h 16.1 mph /  25.9 km/h 58 % 0.00 in /  0 mm
19:48 32.0 °F /  0 °C 18.9 °F /  -7.3 °C 30.28 in /  1025.3 hPa West 4.5 mph /  7.2 km/h 11.5 mph /  18.5 km/h 58 % 0.00 in /  0 mm
19:53 31.8 °F /  -0.1 °C 18.7 °F /  -7.4 °C 30.28 in /  1025.3 hPa WNW 5.2 mph /  8.4 km/h 16.1 mph /  25.9 km/h 58 % 0.00 in /  0 mm
19:58 31.7 °F /  -0.2 °C 19.4 °F /  -7 °C 30.28 in /  1025.3 hPa North 8.0 mph /  12.9 km/h 15.0 mph /  24.1 km/h 60 % 0.00 in /  0 mm
20:03 31.6 °F /  -0.2 °C 19.3 °F /  -7.1 °C 30.28 in /  1025.3 hPa NW 6.0 mph /  9.7 km/h 15.0 mph /  24.1 km/h 60 % 0.00 in /  0 mm
20:08 31.5 °F /  -0.3 °C 18.8 °F /  -7.3 °C 30.28 in /  1025.3 hPa NW 6.0 mph /  9.7 km/h 21.0 mph /  33.8 km/h 59 % 0.00 in /  0 mm
20:13 31.4 °F /  -0.3 °C 18.3 °F /  -7.6 °C 30.29 in /  1025.6 hPa NW 9.0 mph /  14.5 km/h 17.0 mph /  27.4 km/h 58 % 0.00 in /  0 mm
20:18 31.3 °F /  -0.4 °C 18.2 °F /  -7.7 °C 30.29 in /  1025.6 hPa NW 9.0 mph /  14.5 km/h 16.0 mph /  25.7 km/h 58 % 0.00 in /  0 mm
20:23 31.2 °F /  -0.4 °C 18.5 °F /  -7.5 °C 30.29 in /  1025.6 hPa NW 10.0 mph /  16.1 km/h 18.0 mph /  29 km/h 59 % 0.00 in /  0 mm
20:28 31.1 °F /  -0.5 °C 15.9 °F /  -8.9 °C 30.30 in /  1026 hPa NW 10.0 mph /  16.1 km/h 26.0 mph /  41.8 km/h 53 % 0.00 in /  0 mm
20:33 30.9 °F /  -0.6 °C 14.9 °F /  -9.5 °C 30.30 in /  1026 hPa WNW 10.0 mph /  16.1 km/h 23.0 mph /  37 km/h 51 % 0.00 in /  0 mm
20:38 30.8 °F /  -0.7 °C 15.2 °F /  -9.3 °C 30.31 in /  1026.3 hPa WNW 10.0 mph /  16.1 km/h 20.0 mph /  32.2 km/h 52 % 0.00 in /  0 mm
20:43 30.7 °F /  -0.7 °C 16.0 °F /  -8.9 °C 30.31 in /  1026.3 hPa WNW 12.0 mph /  19.3 km/h 24.0 mph /  38.6 km/h 54 % 0.00 in /  0 mm
20:48 30.5 °F /  -0.8 °C 15.4 °F /  -9.2 °C 30.31 in /  1026.3 hPa NW 10.0 mph /  16.1 km/h 25.0 mph /  40.2 km/h 53 % 0.00 in /  0 mm
20:53 30.4 °F /  -0.9 °C 14.9 °F /  -9.5 °C 30.31 in /  1026.3 hPa NW 9.5 mph /  15.3 km/h 19.6 mph /  31.5 km/h 52 % 0.00 in /  0 mm
20:58 30.3 °F /  -0.9 °C 15.2 °F /  -9.3 °C 30.31 in /  1026.3 hPa North 8.0 mph /  12.9 km/h 13.8 mph /  22.2 km/h 53 % 0.00 in /  0 mm
21:03 30.2 °F /  -1 °C 14.7 °F /  -9.6 °C 30.32 in /  1026.6 hPa NW 5.6 mph /  9 km/h 18.0 mph /  29 km/h 52 % 0.00 in /  0 mm
21:08 30.1 °F /  -1.1 °C 14.6 °F /  -9.7 °C 30.33 in /  1027 hPa WNW 10.0 mph /  16.1 km/h 21.0 mph /  33.8 km/h 52 % 0.00 in /  0 mm
21:13 30.0 °F /  -1.1 °C 13.6 °F /  -10.2 °C 30.33 in /  1027 hPa NW 12.3 mph /  19.8 km/h 25.3 mph /  40.7 km/h 50 % 0.00 in /  0 mm
21:18 29.8 °F /  -1.2 °C 13.9 °F /  -10.1 °C 30.33 in /  1027 hPa NW 8.5 mph /  13.7 km/h 15.0 mph /  24.1 km/h 51 % 0.00 in /  0 mm
21:23 29.7 °F /  -1.3 °C 11.9 °F /  -11.2 °C 30.33 in /  1027 hPa North 8.8 mph /  14.2 km/h 17.3 mph /  27.8 km/h 47 % 0.00 in /  0 mm
21:28 29.4 °F /  -1.4 °C 10.6 °F /  -11.9 °C 30.33 in /  1027 hPa NW 9.8 mph /  15.8 km/h 19.6 mph /  31.5 km/h 45 % 0.00 in /  0 mm
21:34 29.1 °F /  -1.6 °C 10.9 °F /  -11.7 °C 30.34 in /  1027.3 hPa West 8.9 mph /  14.3 km/h 19.6 mph /  31.5 km/h 46 % 0.00 in /  0 mm
21:36 29.0 °F /  -1.7 °C 10.8 °F /  -11.8 °C 30.34 in /  1027.3 hPa NW 10.9 mph /  17.5 km/h 18.4 mph /  29.6 km/h 46 % 0.00 in /  0 mm
21:41 28.8 °F /  -1.8 °C 11.1 °F /  -11.6 °C 30.34 in /  1027.3 hPa WNW 10.4 mph /  16.7 km/h 19.6 mph /  31.5 km/h 47 % 0.00 in /  0 mm
21:42 28.8 °F /  -1.8 °C 11.1 °F /  -11.6 °C 30.34 in /  1027.3 hPa WNW 10.2 mph /  16.4 km/h 16.1 mph /  25.9 km/h 47 % 0.00 in /  0 mm
21:47 28.6 °F /  -1.9 °C 10.4 °F /  -12 °C 30.35 in /  1027.7 hPa NNW 15.6 mph /  25.1 km/h 26.5 mph /  42.6 km/h 46 % 0.00 in /  0 mm
21:52 28.4 °F /  -2 °C 7.7 °F /  -13.5 °C 30.35 in /  1027.7 hPa NW 16.4 mph /  26.4 km/h 32.2 mph /  51.8 km/h 41 % 0.00 in /  0 mm
21:57 28.2 °F /  -2.1 °C 8.0 °F /  -13.3 °C 30.35 in /  1027.7 hPa WNW 8.5 mph /  13.7 km/h 19.6 mph /  31.5 km/h 42 % 0.00 in /  0 mm
21:59 28.1 °F /  -2.2 °C 7.4 °F /  -13.7 °C 30.35 in /  1027.7 hPa WSW 10.4 mph /  16.7 km/h 23.0 mph /  37 km/h 41 % 0.00 in /  0 mm
22:04 27.9 °F /  -2.3 °C 7.2 °F /  -13.8 °C 30.35 in /  1027.7 hPa NNW 9.3 mph /  15 km/h 26.5 mph /  42.6 km/h 41 % 0.00 in /  0 mm
22:09 27.7 °F /  -2.4 °C 8.6 °F /  -13 °C 30.35 in /  1027.7 hPa NNW 10.7 mph /  17.2 km/h 13.8 mph /  22.2 km/h 44 % 0.00 in /  0 mm
22:14 27.6 °F /  -2.4 °C 7.5 °F /  -13.6 °C 30.35 in /  1027.7 hPa WNW 9.1 mph /  14.6 km/h 21.9 mph /  35.2 km/h 42 % 0.00 in /  0 mm
22:19 27.5 °F /  -2.5 °C 7.9 °F /  -13.4 °C 30.36 in /  1028 hPa WNW 15.1 mph /  24.3 km/h 23.0 mph /  37 km/h 43 % 0.00 in /  0 mm
22:24 27.3 °F /  -2.6 °C 10.2 °F /  -12.1 °C 30.36 in /  1028 hPa NW 9.9 mph /  15.9 km/h 19.6 mph /  31.5 km/h 48 % 0.00 in /  0 mm
22:29 27.3 °F /  -2.6 °C 9.2 °F /  -12.7 °C 30.36 in /  1028 hPa West 14.1 mph /  22.7 km/h 23.0 mph /  37 km/h 46 % 0.00 in /  0 mm
22:34 27.1 °F /  -2.7 °C 8.0 °F /  -13.3 °C 30.37 in /  1028.3 hPa North 12.9 mph /  20.8 km/h 21.9 mph /  35.2 km/h 44 % 0.00 in /  0 mm
22:39 26.8 °F /  -2.9 °C 6.7 °F /  -14.1 °C 30.36 in /  1028 hPa WNW 10.6 mph /  17.1 km/h 19.6 mph /  31.5 km/h 42 % 0.00 in /  0 mm
22:44 26.5 °F /  -3.1 °C 7.5 °F /  -13.6 °C 30.37 in /  1028.3 hPa WNW 8.4 mph /  13.5 km/h 20.0 mph /  32.2 km/h 44 % 0.00 in /  0 mm
22:49 26.3 °F /  -3.2 °C 6.3 °F /  -14.3 °C 30.36 in /  1028 hPa NNW 10.9 mph /  17.5 km/h 19.6 mph /  31.5 km/h 42 % 0.00 in /  0 mm
22:54 26.1 °F /  -3.3 °C 6.1 °F /  -14.4 °C 30.36 in /  1028 hPa NW 11.1 mph /  17.9 km/h 18.4 mph /  29.6 km/h 42 % 0.00 in /  0 mm
23:00 25.9 °F /  -3.4 °C 6.4 °F /  -14.2 °C 30.37 in /  1028.3 hPa WNW 9.3 mph /  15 km/h 23.0 mph /  37 km/h 43 % 0.00 in /  0 mm
23:05 25.8 °F /  -3.4 °C 6.3 °F /  -14.3 °C 30.37 in /  1028.3 hPa West 11.9 mph /  19.2 km/h 24.2 mph /  38.9 km/h 43 % 0.00 in /  0 mm
23:10 25.7 °F /  -3.5 °C 6.3 °F /  -14.3 °C 30.37 in /  1028.3 hPa NNW 5.9 mph /  9.5 km/h 24.2 mph /  38.9 km/h 43 % 0.00 in /  0 mm
23:15 25.7 °F /  -3.5 °C 6.3 °F /  -14.3 °C 30.37 in /  1028.3 hPa NNW 14.5 mph /  23.3 km/h 28.0 mph /  45.1 km/h 43 % 0.00 in /  0 mm
23:20 25.6 °F /  -3.6 °C 6.7 °F /  -14.1 °C 30.37 in /  1028.3 hPa WSW 9.9 mph /  15.9 km/h 19.6 mph /  31.5 km/h 44 % 0.00 in /  0 mm
23:25 25.6 °F /  -3.6 °C 7.7 °F /  -13.5 °C 30.38 in /  1028.7 hPa North 9.9 mph /  15.9 km/h 15.0 mph /  24.1 km/h 46 % 0.00 in /  0 mm
23:30 25.6 °F /  -3.6 °C 7.7 °F /  -13.5 °C 30.38 in /  1028.7 hPa NNE 9.4 mph /  15.1 km/h 11.5 mph /  18.5 km/h 46 % 0.00 in /  0 mm
23:35 25.4 °F /  -3.7 °C 7.0 °F /  -13.9 °C 30.39 in /  1029 hPa North 9.0 mph /  14.5 km/h 17.3 mph /  27.8 km/h 45 % 0.00 in /  0 mm
23:40 25.4 °F /  -3.7 °C 6.5 °F /  -14.2 °C 30.38 in /  1028.7 hPa NNW 10.8 mph /  17.4 km/h 18.4 mph /  29.6 km/h 44 % 0.00 in /  0 mm
23:45 25.3 °F /  -3.7 °C 6.4 °F /  -14.2 °C 30.38 in /  1028.7 hPa WNW 10.5 mph /  16.9 km/h 18.4 mph /  29.6 km/h 44 % 0.00 in /  0 mm
23:50 25.2 °F /  -3.8 °C 7.3 °F /  -13.7 °C 30.39 in /  1029 hPa NW 5.7 mph /  9.2 km/h 11.5 mph /  18.5 km/h 46 % 0.00 in /  0 mm
23:55 25.2 °F /  -3.8 °C 7.8 °F /  -13.4 °C 30.39 in /  1029 hPa NNW 7.9 mph /  12.7 km/h 16.1 mph /  25.9 km/h 47 % 0.00 in /  0 mm
Crab Meadow Weather
Compliments of Weather Underground - 3 mb

Script developed by  Jim McMurry - jmcmurry@mwt.net Adapted for the template by  Wim van der Kuil - Leuven-Template.eu

Weather Terms: Frost Advisory - Widespread frost during the growing season. Frost generally occurs with fair skies and light winds.